sensor_id;sensor_type;location;lat;lon;timestamp;pressure;altitude;pressure_sealevel;temperature;humidity
31088;BME280;17745;55.914;37.554;2022-12-18T01:46:44;98542.75;;;-4.44;70.99
31088;BME280;17745;55.914;37.554;2022-12-18T01:52:26;98546.09;;;-4.12;70.67
31088;BME280;17745;55.914;37.554;2022-12-18T01:55:03;98538.69;;;-4.15;70.46
31088;BME280;17745;55.914;37.554;2022-12-18T01:57:51;98542.19;;;-3.69;69.29
31088;BME280;17745;55.914;37.554;2022-12-18T02:01:02;98543.59;;;-3.82;69.19
31088;BME280;17745;55.914;37.554;2022-12-18T02:29:44;98536.16;;;-4.00;69.38
31088;BME280;17745;55.914;37.554;2022-12-18T02:32:20;98555.66;;;-3.59;68.16
31088;BME280;17745;55.914;37.554;2022-12-18T02:35:00;98542.09;;;-3.61;68.07
31088;BME280;17745;55.914;37.554;2022-12-18T02:37:52;98559.16;;;-4.05;69.46
31088;BME280;17745;55.914;37.554;2022-12-18T02:43:22;98553.06;;;-4.36;69.76
31088;BME280;17745;55.914;37.554;2022-12-18T02:55:13;98555.25;;;-4.88;71.73
31088;BME280;17745;55.914;37.554;2022-12-18T02:58:11;98550.97;;;-5.04;72.46
31088;BME280;17745;55.914;37.554;2022-12-18T03:05:00;98547.16;;;-3.83;68.69
31088;BME280;17745;55.914;37.554;2022-12-18T03:07:46;98544.53;;;-3.30;66.88
31088;BME280;17745;55.914;37.554;2022-12-18T03:13:34;98547.84;;;-3.51;67.45
31088;BME280;17745;55.914;37.554;2022-12-18T03:16:20;98545.16;;;-3.57;67.56
31088;BME280;17745;55.914;37.554;2022-12-18T03:18:54;98543.53;;;-3.59;67.49
31088;BME280;17745;55.914;37.554;2022-12-18T03:21:29;98521.03;;;-3.73;67.52
31088;BME280;17745;55.914;37.554;2022-12-18T03:24:20;98537.59;;;-4.67;70.58
31088;BME280;17745;55.914;37.554;2022-12-18T03:26:57;98511.78;;;-4.76;71.01
31088;BME280;17745;55.914;37.554;2022-12-18T03:29:38;98540.34;;;-4.22;69.77
31088;BME280;17745;55.914;37.554;2022-12-18T03:32:15;98556.16;;;-4.17;69.35
31088;BME280;17745;55.914;37.554;2022-12-18T03:34:53;98532.59;;;-4.22;69.14
31088;BME280;17745;55.914;37.554;2022-12-18T03:37:39;98533.62;;;-4.08;68.77
31088;BME280;17745;55.914;37.554;2022-12-18T03:40:14;98536.88;;;-4.93;70.96
31088;BME280;17745;55.914;37.554;2022-12-18T03:42:49;98542.84;;;-5.32;72.75
31088;BME280;17745;55.914;37.554;2022-12-18T03:45:30;98530.00;;;-4.22;69.27
31088;BME280;17745;55.914;37.554;2022-12-18T03:51:51;98532.47;;;-4.52;69.79
31088;BME280;17745;55.914;37.554;2022-12-18T04:07:24;98540.34;;;-4.22;69.13
31088;BME280;17745;55.914;37.554;2022-12-18T04:12:42;98527.59;;;-4.47;69.77
31088;BME280;17745;55.914;37.554;2022-12-18T04:38:43;98566.94;;;-4.13;68.85
31088;BME280;17745;55.914;37.554;2022-12-18T04:41:27;98582.75;;;-5.03;71.12
31088;BME280;17745;55.914;37.554;2022-12-18T04:43:56;98587.62;;;-3.67;67.46
31088;BME280;17745;55.914;37.554;2022-12-18T04:50:25;98621.19;;;-4.05;67.94
31088;BME280;17745;55.914;37.554;2022-12-18T05:21:13;98608.28;;;-5.25;71.22
31088;BME280;17745;55.914;37.554;2022-12-18T05:27:43;98606.59;;;-5.91;73.27
31088;BME280;17745;55.914;37.554;2022-12-18T05:30:33;98616.50;;;-5.13;70.99
31088;BME280;17745;55.914;37.554;2022-12-18T05:36:30;98627.84;;;-5.55;72.35
31088;BME280;17745;55.914;37.554;2022-12-18T05:39:02;98642.63;;;-5.08;71.19
31088;BME280;17745;55.914;37.554;2022-12-18T05:41:49;98654.28;;;-4.32;68.65
31088;BME280;17745;55.914;37.554;2022-12-18T05:44:53;98653.91;;;-3.89;67.12
31088;BME280;17745;55.914;37.554;2022-12-18T05:47:54;98651.69;;;-5.28;70.45
31088;BME280;17745;55.914;37.554;2022-12-18T05:50:26;98661.75;;;-4.85;69.38
31088;BME280;17745;55.914;37.554;2022-12-18T05:56:47;98682.75;;;-4.89;69.46
31088;BME280;17745;55.914;37.554;2022-12-18T05:59:22;98677.31;;;-4.54;68.44
31088;BME280;17745;55.914;37.554;2022-12-18T06:01:54;98666.03;;;-5.42;70.37
31088;BME280;17745;55.914;37.554;2022-12-18T06:04:29;98680.84;;;-5.03;69.18
31088;BME280;17745;55.914;37.554;2022-12-18T06:07:03;98703.72;;;-4.75;68.64
31088;BME280;17745;55.914;37.554;2022-12-18T06:09:43;98650.56;;;-5.26;69.84
31088;BME280;17745;55.914;37.554;2022-12-18T06:12:14;98708.78;;;-5.65;71.00
31088;BME280;17745;55.914;37.554;2022-12-18T06:14:49;98681.34;;;-6.07;72.48
31088;BME280;17745;55.914;37.554;2022-12-18T06:17:22;98700.81;;;-6.05;72.47
31088;BME280;17745;55.914;37.554;2022-12-18T06:20:38;98690.53;;;-5.05;69.94
31088;BME280;17745;55.914;37.554;2022-12-18T06:23:16;98709.28;;;-5.61;70.91
31088;BME280;17745;55.914;37.554;2022-12-18T06:26:13;98715.88;;;-5.50;70.87
31088;BME280;17745;55.914;37.554;2022-12-18T06:28:53;98732.22;;;-5.93;72.32
31088;BME280;17745;55.914;37.554;2022-12-18T06:31:43;98717.41;;;-5.99;72.80
31088;BME280;17745;55.914;37.554;2022-12-18T06:34:19;98737.00;;;-5.47;71.76
31088;BME280;17745;55.914;37.554;2022-12-18T06:36:49;98735.19;;;-4.71;69.12
31088;BME280;17745;55.914;37.554;2022-12-18T06:39:27;98756.69;;;-4.23;67.71
31088;BME280;17745;55.914;37.554;2022-12-18T06:42:02;98763.47;;;-5.03;69.69
31088;BME280;17745;55.914;37.554;2022-12-18T06:53:41;98753.78;;;-4.76;68.65
31088;BME280;17745;55.914;37.554;2022-12-18T06:56:16;98764.09;;;-3.80;66.40
31088;BME280;17745;55.914;37.554;2022-12-18T06:58:56;98772.06;;;-3.35;65.26
31088;BME280;17745;55.914;37.554;2022-12-18T07:01:34;98780.13;;;-3.30;65.03
31088;BME280;17745;55.914;37.554;2022-12-18T07:04:12;98772.53;;;-4.26;66.51
31088;BME280;17745;55.914;37.554;2022-12-18T07:06:55;98784.59;;;-4.10;66.54
31088;BME280;17745;55.914;37.554;2022-12-18T07:09:31;98801.50;;;-3.59;65.51
31088;BME280;17745;55.914;37.554;2022-12-18T07:12:11;98776.16;;;-3.64;65.08
31088;BME280;17745;55.914;37.554;2022-12-18T07:14:46;98812.31;;;-3.55;65.15
31088;BME280;17745;55.914;37.554;2022-12-18T07:17:18;98804.41;;;-3.94;65.73
31088;BME280;17745;55.914;37.554;2022-12-18T07:19:50;98802.09;;;-3.49;64.84
31088;BME280;17745;55.914;37.554;2022-12-18T07:22:22;98802.50;;;-4.08;65.71
31088;BME280;17745;55.914;37.554;2022-12-18T07:27:48;98790.34;;;-4.39;66.48
31088;BME280;17745;55.914;37.554;2022-12-18T07:30:23;98790.75;;;-3.48;64.47
31088;BME280;17745;55.914;37.554;2022-12-18T07:32:56;98809.72;;;-3.24;63.86
31088;BME280;17745;55.914;37.554;2022-12-18T07:35:59;98820.88;;;-3.00;63.19
31088;BME280;17745;55.914;37.554;2022-12-18T07:38:49;98835.53;;;-3.79;64.87
31088;BME280;17745;55.914;37.554;2022-12-18T07:41:51;98820.78;;;-4.10;65.75
31088;BME280;17745;55.914;37.554;2022-12-18T07:51:22;98808.00;;;-3.63;64.29
31088;BME280;17745;55.914;37.554;2022-12-18T07:54:18;98868.03;;;-4.66;66.80
31088;BME280;17745;55.914;37.554;2022-12-18T07:56:55;98846.50;;;-3.68;64.85
31088;BME280;17745;55.914;37.554;2022-12-18T07:59:48;98865.84;;;-3.96;65.71
31088;BME280;17745;55.914;37.554;2022-12-18T08:02:20;98862.88;;;-3.76;65.09
31088;BME280;17745;55.914;37.554;2022-12-18T08:05:40;98856.44;;;-3.49;64.37
31088;BME280;17745;55.914;37.554;2022-12-18T08:08:29;98872.19;;;-3.27;63.71
31088;BME280;17745;55.914;37.554;2022-12-18T10:00:55;99033.00;;;-3.13;65.04
31088;BME280;17745;55.914;37.554;2022-12-18T10:03:37;99022.06;;;-2.92;64.46
31088;BME280;17745;55.914;37.554;2022-12-18T10:06:38;99036.56;;;-3.14;65.10
31088;BME280;17745;55.914;37.554;2022-12-18T10:09:27;99015.78;;;-3.46;65.47
31088;BME280;17745;55.914;37.554;2022-12-18T10:15:01;99034.03;;;-3.39;65.62
31088;BME280;17745;55.914;37.554;2022-12-18T10:29:20;99063.31;;;-3.47;65.31
31088;BME280;17745;55.914;37.554;2022-12-18T10:42:28;99043.41;;;-4.63;69.00
31088;BME280;17745;55.914;37.554;2022-12-18T15:51:42;99554.84;;;-6.14;69.16
31088;BME280;17745;55.914;37.554;2022-12-18T15:54:13;99575.72;;;-5.10;66.01
31088;BME280;17745;55.914;37.554;2022-12-18T15:57:12;99597.81;;;-4.88;65.14
31088;BME280;17745;55.914;37.554;2022-12-18T15:59:53;99596.00;;;-5.25;65.73
31088;BME280;17745;55.914;37.554;2022-12-18T16:02:25;99582.91;;;-5.81;66.43
31088;BME280;17745;55.914;37.554;2022-12-18T16:04:57;99571.63;;;-6.39;67.77
31088;BME280;17745;55.914;37.554;2022-12-18T16:07:31;99601.22;;;-6.75;68.28
31088;BME280;17745;55.914;37.554;2022-12-18T16:10:01;99585.69;;;-6.94;68.40
31088;BME280;17745;55.914;37.554;2022-12-18T16:12:39;99635.75;;;-7.08;69.44
31088;BME280;17745;55.914;37.554;2022-12-18T16:15:22;99642.34;;;-6.22;66.53
31088;BME280;17745;55.914;37.554;2022-12-18T16:17:54;99628.66;;;-5.93;65.35
31088;BME280;17745;55.914;37.554;2022-12-18T16:20:25;99644.28;;;-6.55;65.99
31088;BME280;17745;55.914;37.554;2022-12-18T16:23:03;99643.72;;;-6.18;65.30
31088;BME280;17745;55.914;37.554;2022-12-18T16:25:51;99642.31;;;-6.32;65.17
31088;BME280;17745;55.914;37.554;2022-12-18T16:28:27;99652.78;;;-7.17;67.50
31088;BME280;17745;55.914;37.554;2022-12-18T16:35:00;99653.94;;;-7.10;66.75
31088;BME280;17745;55.914;37.554;2022-12-18T16:50:15;99700.59;;;-6.72;64.48
31088;BME280;17745;55.914;37.554;2022-12-18T16:52:48;99700.12;;;-6.56;63.42
31088;BME280;17745;55.914;37.554;2022-12-18T16:55:39;99703.59;;;-6.36;63.09
31088;BME280;17745;55.914;37.554;2022-12-18T16:58:35;99709.09;;;-6.19;62.63
31088;BME280;17745;55.914;37.554;2022-12-18T17:01:16;99704.25;;;-5.63;61.09
31088;BME280;17745;55.914;37.554;2022-12-18T17:55:36;99800.81;;;-7.46;63.56
31088;BME280;17745;55.914;37.554;2022-12-18T17:58:52;99803.22;;;-7.88;64.98
31088;BME280;17745;55.914;37.554;2022-12-18T18:01:31;99809.66;;;-8.05;65.64
31088;BME280;17745;55.914;37.554;2022-12-18T18:07:51;99820.06;;;-7.72;64.74
31088;BME280;17745;55.914;37.554;2022-12-18T18:24:05;99845.41;;;-7.68;61.74
31088;BME280;17745;55.914;37.554;2022-12-18T18:26:38;99848.69;;;-8.11;62.55
31088;BME280;17745;55.914;37.554;2022-12-18T18:29:24;99853.41;;;-8.88;64.34
31088;BME280;17745;55.914;37.554;2022-12-18T18:31:56;99857.81;;;-9.76;67.25
31088;BME280;17745;55.914;37.554;2022-12-18T18:34:37;99864.78;;;-9.41;66.21
31088;BME280;17745;55.914;37.554;2022-12-18T18:37:10;99854.66;;;-9.42;66.31
31088;BME280;17745;55.914;37.554;2022-12-18T19:39:58;99971.94;;;-9.07;63.53
31088;BME280;17745;55.914;37.554;2022-12-18T19:50:00;99979.91;;;-9.75;65.51
31088;BME280;17745;55.914;37.554;2022-12-18T19:52:37;99994.69;;;-10.59;68.16
31088;BME280;17745;55.914;37.554;2022-12-18T19:55:48;99995.28;;;-10.83;69.02
31088;BME280;17745;55.914;37.554;2022-12-18T19:58:24;99999.16;;;-10.23;67.32
31088;BME280;17745;55.914;37.554;2022-12-18T20:01:03;99996.50;;;-9.16;64.20
31088;BME280;17745;55.914;37.554;2022-12-18T20:04:34;99980.84;;;-9.00;62.90
31088;BME280;17745;55.914;37.554;2022-12-18T20:07:34;100001.53;;;-9.79;65.49
31088;BME280;17745;55.914;37.554;2022-12-18T20:36:15;100016.78;;;-9.91;65.76
31088;BME280;17745;55.914;37.554;2022-12-18T20:38:51;100031.25;;;-10.17;66.64
31088;BME280;17745;55.914;37.554;2022-12-18T20:41:44;100032.88;;;-9.88;65.74
31088;BME280;17745;55.914;37.554;2022-12-18T20:44:18;100032.66;;;-8.95;62.89
31088;BME280;17745;55.914;37.554;2022-12-18T20:46:57;100031.84;;;-9.86;65.17
31088;BME280;17745;55.914;37.554;2022-12-18T20:49:30;100031.28;;;-10.44;67.04
31088;BME280;17745;55.914;37.554;2022-12-18T20:52:06;100031.88;;;-11.10;69.08
31088;BME280;17745;55.914;37.554;2022-12-18T20:54:34;100026.66;;;-10.12;66.59
31088;BME280;17745;55.914;37.554;2022-12-18T20:57:02;100031.28;;;-9.38;63.96
31088;BME280;17745;55.914;37.554;2022-12-18T20:59:29;100037.19;;;-9.76;64.47
31088;BME280;17745;55.914;37.554;2022-12-18T21:01:57;100037.00;;;-9.34;63.78
31088;BME280;17745;55.914;37.554;2022-12-18T21:04:25;100056.41;;;-9.04;62.95
31088;BME280;17745;55.914;37.554;2022-12-18T21:06:52;100054.25;;;-9.23;63.69
31088;BME280;17745;55.914;37.554;2022-12-18T21:09:22;100042.12;;;-9.08;62.93
31088;BME280;17745;55.914;37.554;2022-12-18T21:11:51;100042.12;;;-9.21;63.21
31088;BME280;17745;55.914;37.554;2022-12-18T21:14:35;100049.50;;;-8.53;61.39
31088;BME280;17745;55.914;37.554;2022-12-18T21:17:03;100044.37;;;-9.68;64.06
31088;BME280;17745;55.914;37.554;2022-12-18T21:19:33;100034.53;;;-9.62;63.90
31088;BME280;17745;55.914;37.554;2022-12-18T21:22:04;100048.78;;;-9.70;63.77
31088;BME280;17745;55.914;37.554;2022-12-18T21:24:33;100050.44;;;-9.17;62.51
31088;BME280;17745;55.914;37.554;2022-12-18T21:27:01;100054.84;;;-8.94;61.93
31088;BME280;17745;55.914;37.554;2022-12-18T21:29:31;100046.97;;;-8.42;60.44
31088;BME280;17745;55.914;37.554;2022-12-18T21:32:00;100042.12;;;-9.60;62.98
31088;BME280;17745;55.914;37.554;2022-12-18T21:34:28;100059.91;;;-9.97;64.15
31088;BME280;17745;55.914;37.554;2022-12-18T21:36:57;100050.63;;;-9.72;64.16
31088;BME280;17745;55.914;37.554;2022-12-18T21:39:25;100047.37;;;-9.49;63.34
31088;BME280;17745;55.914;37.554;2022-12-18T21:41:56;100065.34;;;-9.49;62.84
31088;BME280;17745;55.914;37.554;2022-12-18T21:44:42;100063.25;;;-10.10;64.96
31088;BME280;17745;55.914;37.554;2022-12-18T21:47:10;100067.78;;;-9.34;62.57
31088;BME280;17745;55.914;37.554;2022-12-18T21:49:41;100068.75;;;-10.16;64.23
31088;BME280;17745;55.914;37.554;2022-12-18T21:52:09;100084.37;;;-10.61;66.38
31088;BME280;17745;55.914;37.554;2022-12-18T21:54:37;100077.69;;;-10.36;65.59
31088;BME280;17745;55.914;37.554;2022-12-18T21:57:06;100083.22;;;-9.62;63.33
31088;BME280;17745;55.914;37.554;2022-12-18T21:59:38;100111.87;;;-10.50;65.97
31088;BME280;17745;55.914;37.554;2022-12-18T22:02:08;100119.81;;;-10.98;68.20
31088;BME280;17745;55.914;37.554;2022-12-18T22:04:36;100070.03;;;-10.78;67.70
31088;BME280;17745;55.914;37.554;2022-12-18T22:07:03;100102.84;;;-10.99;68.30
31088;BME280;17745;55.914;37.554;2022-12-18T22:09:31;100106.56;;;-11.05;68.84
31088;BME280;17745;55.914;37.554;2022-12-18T22:11:59;100093.03;;;-10.49;67.65
31088;BME280;17745;55.914;37.554;2022-12-18T22:14:28;100091.13;;;-10.60;67.94
31088;BME280;17745;55.914;37.554;2022-12-18T22:16:55;100094.09;;;-9.71;65.03
31088;BME280;17745;55.914;37.554;2022-12-18T22:19:23;100076.78;;;-10.35;67.00
31088;BME280;17745;55.914;37.554;2022-12-18T22:21:50;100076.72;;;-9.93;66.33
31088;BME280;17745;55.914;37.554;2022-12-18T22:24:18;100085.06;;;-10.04;66.14
31088;BME280;17745;55.914;37.554;2022-12-18T22:26:46;100079.88;;;-9.49;64.70
31088;BME280;17745;55.914;37.554;2022-12-18T22:29:14;100076.91;;;-9.56;64.88
31088;BME280;17745;55.914;37.554;2022-12-18T22:32:02;100080.50;;;-9.20;64.12
31088;BME280;17745;55.914;37.554;2022-12-18T22:34:30;100099.09;;;-8.90;63.18
31088;BME280;17745;55.914;37.554;2022-12-18T22:36:58;100081.22;;;-9.17;63.31
31088;BME280;17745;55.914;37.554;2022-12-18T22:39:28;100090.84;;;-10.00;66.25
31088;BME280;17745;55.914;37.554;2022-12-18T22:41:55;100097.09;;;-10.05;67.48
31088;BME280;17745;55.914;37.554;2022-12-18T22:44:23;100097.47;;;-9.70;65.54
31088;BME280;17745;55.914;37.554;2022-12-18T22:46:51;100093.56;;;-9.89;66.85
31088;BME280;17745;55.914;37.554;2022-12-18T22:49:21;100077.03;;;-9.31;64.63
31088;BME280;17745;55.914;37.554;2022-12-18T22:51:49;100071.25;;;-9.61;65.69
31088;BME280;17745;55.914;37.554;2022-12-18T22:54:18;100112.25;;;-10.01;67.63
31088;BME280;17745;55.914;37.554;2022-12-18T22:56:45;100101.84;;;-9.85;66.75
31088;BME280;17745;55.914;37.554;2022-12-18T22:59:13;100113.28;;;-9.91;67.22
31088;BME280;17745;55.914;37.554;2022-12-18T23:01:42;100110.25;;;-9.43;66.16
31088;BME280;17745;55.914;37.554;2022-12-18T23:04:11;100085.00;;;-9.62;65.94
31088;BME280;17745;55.914;37.554;2022-12-18T23:06:40;100098.78;;;-8.85;64.19
31088;BME280;17745;55.914;37.554;2022-12-18T23:09:12;100110.84;;;-8.24;62.45
31088;BME280;17745;55.914;37.554;2022-12-18T23:11:40;100111.31;;;-8.19;62.25
31088;BME280;17745;55.914;37.554;2022-12-18T23:14:10;100120.94;;;-9.23;64.72
31088;BME280;17745;55.914;37.554;2022-12-18T23:16:38;100117.44;;;-9.76;67.02
31088;BME280;17745;55.914;37.554;2022-12-18T23:19:06;100121.56;;;-9.32;65.98
31088;BME280;17745;55.914;37.554;2022-12-18T23:21:34;100136.53;;;-9.26;65.24
31088;BME280;17745;55.914;37.554;2022-12-18T23:24:03;100119.69;;;-8.41;63.05
31088;BME280;17745;55.914;37.554;2022-12-18T23:26:32;100099.56;;;-8.72;63.22
31088;BME280;17745;55.914;37.554;2022-12-18T23:29:00;100124.41;;;-9.24;65.24
31088;BME280;17745;55.914;37.554;2022-12-18T23:31:28;100126.66;;;-9.45;66.04
31088;BME280;17745;55.914;37.554;2022-12-18T23:33:56;100123.31;;;-8.81;63.74
31088;BME280;17745;55.914;37.554;2022-12-18T23:36:26;100117.06;;;-9.03;64.67
31088;BME280;17745;55.914;37.554;2022-12-18T23:38:56;100106.16;;;-8.94;63.99
31088;BME280;17745;55.914;37.554;2022-12-18T23:41:26;100132.22;;;-8.74;63.78
31088;BME280;17745;55.914;37.554;2022-12-18T23:43:55;100142.78;;;-9.17;64.58
31088;BME280;17745;55.914;37.554;2022-12-18T23:46:23;100134.66;;;-9.78;66.54
31088;BME280;17745;55.914;37.554;2022-12-18T23:48:52;100156.84;;;-9.10;64.74
31088;BME280;17745;55.914;37.554;2022-12-18T23:51:21;100155.72;;;-9.59;66.15
31088;BME280;17745;55.914;37.554;2022-12-18T23:53:50;100171.44;;;-8.85;64.56
31088;BME280;17745;55.914;37.554;2022-12-18T23:56:19;100130.69;;;-8.64;63.79
31088;BME280;17745;55.914;37.554;2022-12-18T23:58:51;100165.94;;;-8.41;63.13
